Marshall, CA (94940)

3:49 AM PDT on August 30, 2014 (GMT -0700)
Chileno Valley Rd., Petaluma, CA | Change Station
CLOSE
Current Station
Personal Weather Station
Location: Petaluma, CA
Elevation: 1198 ft
Nearby Weather Stations

Elev 1198 ft 38.20 °N, 122.76 °W | Updated 34 seconds ago

Clear
Clear
65.8 °F
Feels Like 65.8 °F
N
14.0
Wind Variable Wind from WSW
Gusts 17.0 mph

Today
High -- | Low -- °F
--% Chance of Precip.
Yesterday
High -- | Low -- °F
Precip. -- in
6:39 AM 7:44 PM
Waxing Crescent, 21% visible
Pressure 29.85 in
Visibility 10.0 miles
Clouds Clear
Dew Point 50 °F
Humidity 56%
Rainfall 0.00 in
Snow Depth Not available.
UV 0 out of 12
Pollen 7.40 out of 12
Air Quality Not available.
Flu Activity Not available.
METAR KSTS 300953Z AUTO 00000KT 10SM CLR 14/12 A2987 RMK AO2 SLP108 T01390122

More Conditions Fewer Conditions

Pressure 29.85 in
Visibility 10.0 miles
Clouds Clear
Dew Point 50 °F
Humidity 56%
Rainfall 0.00 in
Snow Depth Not available.
UV 0 out of 12
Pollen 7.40 out of 12
Air Quality Not available.
Flu Activity Not available.
METAR KSTS 300953Z AUTO 00000KT 10SM CLR 14/12 A2987 RMK AO2 SLP108 T01390122

More Conditions Fewer Conditions

10-Day Weather Forecast

Almanac

Astronomy

Aug. 30, 2014 Rise Set
Actual Time 6:39 AM PDT 7:44 PM PDT
Civil Twilight 6:12 AM PDT 8:11 PM PDT
Nautical Twilight 5:40 AM PDT 8:43 PM PDT
Astronomical Twilight 5:06 AM PDT 9:16 PM PDT
Moon 11:27 AM PDT 10:26 PM PDT
Length of Visible Light 13h 58m
Length of Day
13h 04m
Tomorrow will be 2m 21s shorter.
Waxing Crescent, 21% of the Moon is Illuminated
Today
Waxing Crescent
Sep 2
First Quarter
Sep 8
Full
Sep 15
Last Quarter
Sep 24
New

Today's Extremes

State Highs State Lows

Community

WunderPhotos

Upload Photos

1,748,482 photos uploaded!

WunderBlogs® & News

By Dr. Jeff Masters
Director of Meteorology, Weather Underground
By Kari Strenfel
Meteorologist, Weather Underground
By Christopher C. Burt
Weather Historian, Weather Underground
August 30, 2014
August 29, 2014
August 29, 2014

Nearby

Snow Depth

Station Depth Elevation
CSS Lab 2 in 6900 ft
Echo Peak 1 in 7800 ft
Rubicon #2 0 in 7500 ft
Fallen Leaf 0 in 6300 ft
Forestdale Creek 0 in 8029 ft

Earthquake Activity

City Distance Mag. Time & Date
Ridgemark, California 135 miles 3.4 4:32 PM PDT
2014-08-29
The Geysers, California 43 miles 2.7 2:53 PM PDT
2014-08-29
Ridgemark, California 134 miles 3.0 2:44 PM PDT
2014-08-29
Minimum magnitude displayed is 2.5.

Coastal Water Temperatures

Place Temperature
Point Reyes, CA 61.0 °F
Arena Cove, CA 55.9 °F
San Francisco, CA 66.0 °F
Richmond, CA 66.9 °F

Nearby Weather Stations